createdAt,value
2022-10-16T00:01:53.900Z,13.04
2022-10-16T00:04:22.191Z,13.04
2022-10-16T00:06:50.210Z,13.02
2022-10-16T00:09:18.540Z,13.00
2022-10-16T00:11:46.759Z,12.99
2022-10-16T00:14:16.947Z,12.97
2022-10-16T00:16:46.505Z,12.99
2022-10-16T00:19:14.723Z,12.98
2022-10-16T00:21:43.314Z,13.00
2022-10-16T00:24:12.509Z,13.02
2022-10-16T00:26:41.559Z,13.08
2022-10-16T00:29:09.885Z,13.11
2022-10-16T00:31:38.136Z,13.14
2022-10-16T00:34:07.797Z,13.16
2022-10-16T00:36:35.952Z,13.17
2022-10-16T00:39:04.021Z,13.19
2022-10-16T00:41:32.614Z,13.18
2022-10-16T00:44:01.955Z,13.18
2022-10-16T00:46:33.934Z,13.20
2022-10-16T00:49:11.054Z,13.19
2022-10-16T00:51:41.764Z,13.21
2022-10-16T00:54:13.404Z,13.20
2022-10-16T00:56:41.982Z,13.25
2022-10-16T00:59:16.357Z,13.26
2022-10-16T01:01:44.487Z,13.30
2022-10-16T01:04:14.399Z,13.32
2022-10-16T01:06:48.562Z,13.33
2022-10-16T01:09:24.045Z,13.38
2022-10-16T01:12:02.192Z,13.37
2022-10-16T01:14:37.633Z,13.37
2022-10-16T01:17:13.613Z,13.35
2022-10-16T01:20:07.799Z,13.35
2022-10-16T01:22:44.464Z,13.32
2022-10-16T01:25:18.792Z,13.32
2022-10-16T01:27:50.655Z,13.29
2022-10-16T01:30:24.207Z,13.27
2022-10-16T01:32:57.638Z,13.23
2022-10-16T01:35:31.112Z,13.19
2022-10-16T01:38:05.611Z,13.21
2022-10-16T01:40:36.722Z,13.17
2022-10-16T01:43:11.307Z,13.14
2022-10-16T01:45:40.356Z,13.16
2022-10-16T01:48:10.776Z,13.13
2022-10-16T01:50:43.873Z,13.01
2022-10-16T01:53:16.145Z,13.00
2022-10-16T01:55:49.490Z,13.00
2022-10-16T01:58:19.676Z,12.94
2022-10-16T02:00:49.983Z,12.95
2022-10-16T02:03:20.963Z,12.91
2022-10-16T02:05:54.107Z,12.92
2022-10-16T02:08:25.057Z,12.92
2022-10-16T02:10:53.225Z,12.92
2022-10-16T02:13:29.228Z,12.93
2022-10-16T02:15:57.310Z,12.91
2022-10-16T02:18:30.133Z,12.90
2022-10-16T02:21:08.099Z,12.90
2022-10-16T02:23:45.399Z,12.91
2022-10-16T02:26:18.019Z,12.91
2022-10-16T02:28:53.353Z,12.90
2022-10-16T02:31:28.507Z,12.90
2022-10-16T02:33:58.941Z,12.90
2022-10-16T02:36:27.825Z,12.89
2022-10-16T02:38:57.032Z,12.89
2022-10-16T02:41:26.024Z,12.87
2022-10-16T02:43:56.149Z,12.83
2022-10-16T02:46:24.886Z,12.86
2022-10-16T02:48:53.050Z,12.83
2022-10-16T02:51:21.473Z,12.83
2022-10-16T02:53:49.660Z,12.81
2022-10-16T02:58:47.805Z,12.82
2022-10-16T03:01:26.143Z,12.81
2022-10-16T03:03:54.277Z,12.78
2022-10-16T03:06:22.681Z,12.78
2022-10-16T03:08:50.777Z,12.77
2022-10-16T03:11:22.539Z,12.78
2022-10-16T03:13:50.717Z,12.78
2022-10-16T03:16:22.425Z,12.77
2022-10-16T03:18:52.161Z,12.78
2022-10-16T03:21:20.570Z,12.79
2022-10-16T03:23:49.147Z,12.79
2022-10-16T03:26:17.321Z,12.76
2022-10-16T03:28:45.427Z,12.78
2022-10-16T03:31:21.930Z,12.77
2022-10-16T03:33:51.681Z,12.77
2022-10-16T03:36:20.265Z,12.77
2022-10-16T03:38:48.396Z,12.74
2022-10-16T03:41:16.533Z,12.72
2022-10-16T03:43:44.562Z,12.69
2022-10-16T03:46:12.763Z,12.66
2022-10-16T03:48:41.827Z,12.60
2022-10-16T03:51:11.532Z,12.56
2022-10-16T03:53:39.596Z,12.51
2022-10-16T03:56:09.365Z,12.45
2022-10-16T03:58:37.902Z,12.40
2022-10-16T04:01:06.083Z,12.37
2022-10-16T04:03:34.287Z,12.32
2022-10-16T04:06:02.557Z,12.27
2022-10-16T04:08:32.143Z,12.25
2022-10-16T04:11:00.271Z,12.20
2022-10-16T04:13:28.274Z,12.16
2022-10-16T04:15:56.382Z,12.15
2022-10-16T04:18:24.669Z,12.14
2022-10-16T04:20:52.768Z,12.12
2022-10-16T04:23:20.871Z,12.13
2022-10-16T04:25:50.413Z,12.13
2022-10-16T04:28:18.651Z,12.12
2022-10-16T04:30:46.778Z,12.09
2022-10-16T04:33:15.053Z,12.11
2022-10-16T04:35:44.144Z,12.10
2022-10-16T04:38:12.379Z,12.08
2022-10-16T04:40:40.494Z,12.04
2022-10-16T04:43:11.856Z,12.00
2022-10-16T04:45:39.959Z,11.92
2022-10-16T04:48:08.037Z,11.91
2022-10-16T04:50:36.171Z,11.87
2022-10-16T04:53:04.450Z,11.82
2022-10-16T04:55:32.515Z,11.79
2022-10-16T04:58:00.644Z,11.75
2022-10-16T05:00:30.203Z,11.72
2022-10-16T05:03:08.576Z,11.68
2022-10-16T05:05:37.407Z,11.65
2022-10-16T05:08:05.966Z,11.62
2022-10-16T05:10:34.044Z,11.59
2022-10-16T05:13:02.700Z,11.56
2022-10-16T05:15:32.199Z,11.56
2022-10-16T05:18:02.802Z,11.52
2022-10-16T05:20:31.340Z,11.52
2022-10-16T05:22:59.365Z,11.45
2022-10-16T05:25:27.665Z,11.48
2022-10-16T05:27:55.732Z,11.48
2022-10-16T05:30:23.822Z,11.47
2022-10-16T05:32:53.898Z,11.42
2022-10-16T05:35:23.732Z,11.41
2022-10-16T05:37:51.827Z,11.41
2022-10-16T05:40:20.131Z,11.39
2022-10-16T05:42:48.245Z,11.39
2022-10-16T05:45:16.391Z,11.39
2022-10-16T05:47:44.567Z,11.38
2022-10-16T05:50:14.293Z,11.33
2022-10-16T05:52:42.473Z,11.32
2022-10-16T05:55:11.154Z,11.40
2022-10-16T05:57:39.709Z,11.43
2022-10-16T06:00:09.221Z,11.46
2022-10-16T06:02:37.486Z,11.48
2022-10-16T06:05:06.472Z,11.55
2022-10-16T06:07:38.673Z,11.58
2022-10-16T06:10:08.823Z,11.63
2022-10-16T06:12:36.966Z,11.62
2022-10-16T06:15:07.610Z,11.73
2022-10-16T06:17:35.794Z,11.76
2022-10-16T06:20:04.161Z,11.77
2022-10-16T06:22:32.256Z,11.80
2022-10-16T06:25:01.866Z,11.80
2022-10-16T06:27:30.418Z,11.85
2022-10-16T06:29:58.698Z,11.88
2022-10-16T06:32:27.562Z,11.91
2022-10-16T06:34:55.665Z,11.95
2022-10-16T06:37:24.459Z,11.95
2022-10-16T06:39:54.277Z,11.96
2022-10-16T06:42:24.204Z,12.00
2022-10-16T06:44:52.423Z,12.02
2022-10-16T06:47:21.064Z,12.04
2022-10-16T06:49:51.905Z,12.05
2022-10-16T06:52:22.523Z,12.10
2022-10-16T06:54:51.532Z,12.13
2022-10-16T06:57:19.677Z,12.17
2022-10-16T06:59:53.250Z,12.20
2022-10-16T07:02:23.560Z,12.22
2022-10-16T07:04:51.985Z,12.24
2022-10-16T07:07:20.325Z,12.28
2022-10-16T07:09:48.377Z,12.31
2022-10-16T07:12:16.517Z,12.34
2022-10-16T07:14:44.597Z,12.37
2022-10-16T07:17:14.255Z,12.42
2022-10-16T07:19:42.320Z,12.50
2022-10-16T07:22:10.454Z,12.58
2022-10-16T07:24:38.627Z,12.65
2022-10-16T07:27:06.748Z,12.72
2022-10-16T07:29:35.157Z,12.76
2022-10-16T07:32:04.302Z,12.82
2022-10-16T07:34:33.939Z,12.88
2022-10-16T07:37:02.390Z,12.95
2022-10-16T07:39:30.950Z,13.02
2022-10-16T07:41:59.562Z,13.10
2022-10-16T07:44:27.767Z,13.11
2022-10-16T07:46:55.828Z,13.25
2022-10-16T07:49:24.158Z,13.32
2022-10-16T07:51:53.692Z,13.35
2022-10-16T07:54:21.833Z,13.43
2022-10-16T07:56:50.081Z,13.52
2022-10-16T07:59:18.439Z,13.62
2022-10-16T08:01:46.830Z,13.73
2022-10-16T08:04:15.481Z,13.79
2022-10-16T08:06:44.149Z,13.82
2022-10-16T08:09:15.779Z,13.93
2022-10-16T08:11:44.047Z,14.03
2022-10-16T08:14:12.575Z,14.06
2022-10-16T08:16:40.840Z,14.11
2022-10-16T08:19:09.077Z,14.15
2022-10-16T08:21:37.697Z,14.18
2022-10-16T08:24:06.040Z,14.20
2022-10-16T08:26:35.984Z,14.27
2022-10-16T08:29:04.281Z,14.32
2022-10-16T08:31:32.662Z,14.32
2022-10-16T08:34:00.984Z,14.36
2022-10-16T08:36:29.737Z,14.35
2022-10-16T08:38:57.909Z,14.37
2022-10-16T08:41:47.372Z,14.40
2022-10-16T08:44:33.140Z,14.37
2022-10-16T08:47:14.458Z,14.36
2022-10-16T08:49:45.273Z,14.32
2022-10-16T08:52:16.063Z,14.30
2022-10-16T08:54:48.866Z,14.32
2022-10-16T08:57:23.267Z,14.36
2022-10-16T08:59:55.832Z,14.48
2022-10-16T09:02:33.872Z,14.54
2022-10-16T09:05:28.328Z,14.67
2022-10-16T09:08:09.127Z,14.83
2022-10-16T09:10:49.678Z,14.92
2022-10-16T09:13:25.855Z,15.08
2022-10-16T09:16:04.228Z,15.05
2022-10-16T09:18:40.078Z,15.14
2022-10-16T09:21:17.925Z,15.25
2022-10-16T09:23:46.308Z,15.24
2022-10-16T09:26:16.592Z,15.42
2022-10-16T09:28:44.908Z,15.49
2022-10-16T09:31:22.795Z,15.60
2022-10-16T09:33:55.473Z,15.65
2022-10-16T09:36:29.719Z,15.65
2022-10-16T09:39:06.533Z,15.76
2022-10-16T09:41:38.556Z,15.75
2022-10-16T09:44:19.017Z,15.77
2022-10-16T09:46:48.533Z,15.74
2022-10-16T09:49:25.449Z,15.75
2022-10-16T09:52:05.048Z,15.75
2022-10-16T09:54:33.624Z,15.77
2022-10-16T09:57:09.388Z,15.75
2022-10-16T09:59:48.619Z,15.75
2022-10-16T10:02:21.107Z,15.67
2022-10-16T10:04:55.069Z,15.64
2022-10-16T10:07:29.172Z,15.57
2022-10-16T10:09:59.084Z,15.53
2022-10-16T10:12:30.708Z,15.58
2022-10-16T10:15:01.024Z,15.63
2022-10-16T10:17:31.179Z,15.63
2022-10-16T10:20:01.877Z,15.58
2022-10-16T10:22:33.592Z,15.45
2022-10-16T10:25:28.994Z,15.53
2022-10-16T10:28:19.847Z,15.74
2022-10-16T10:30:58.357Z,15.80
2022-10-16T10:33:40.210Z,15.81
2022-10-16T10:36:19.531Z,15.85
2022-10-16T10:38:53.861Z,15.91
2022-10-16T10:42:00.895Z,16.05
2022-10-16T10:44:53.226Z,16.14
2022-10-16T10:47:33.353Z,16.19
2022-10-16T10:50:14.917Z,16.30
2022-10-16T10:53:00.331Z,16.33
2022-10-16T10:55:39.258Z,16.37
2022-10-16T10:58:35.075Z,16.34
2022-10-16T11:01:19.068Z,16.26
2022-10-16T11:04:10.722Z,16.30
2022-10-16T11:06:46.017Z,16.47
2022-10-16T11:09:19.912Z,16.57
2022-10-16T11:11:52.829Z,16.64
2022-10-16T11:14:24.404Z,16.63
2022-10-16T11:16:59.067Z,16.50
2022-10-16T11:19:37.591Z,16.37
2022-10-16T11:22:14.204Z,16.39
2022-10-16T11:24:50.689Z,16.29
2022-10-16T11:27:22.370Z,16.15
2022-10-16T11:29:57.922Z,16.01
2022-10-16T11:32:32.296Z,15.97
2022-10-16T11:35:06.578Z,15.95
2022-10-16T11:37:42.370Z,15.94
2022-10-16T11:40:21.881Z,15.90
2022-10-16T11:42:56.739Z,15.86
2022-10-16T11:45:33.271Z,15.87
2022-10-16T11:48:24.896Z,15.83
2022-10-16T11:50:56.215Z,15.97
2022-10-16T11:53:44.962Z,16.11
2022-10-16T11:56:16.715Z,16.16
2022-10-16T11:58:55.739Z,16.20
2022-10-16T12:01:33.751Z,16.29
2022-10-16T12:04:21.488Z,16.37
2022-10-16T12:06:54.719Z,16.51
2022-10-16T12:09:27.756Z,16.56
2022-10-16T12:11:56.808Z,16.63
2022-10-16T12:15:16.007Z,16.58
2022-10-16T12:17:36.431Z,16.51
2022-10-16T12:20:22.977Z,16.38
2022-10-16T12:22:55.603Z,16.31
2022-10-16T12:25:29.250Z,16.45
2022-10-16T12:28:03.527Z,16.57
2022-10-16T12:30:35.967Z,16.64
2022-10-16T12:33:07.048Z,16.61
2022-10-16T12:35:45.077Z,16.57
2022-10-16T12:38:20.171Z,16.47
2022-10-16T12:40:58.914Z,16.39
2022-10-16T12:43:39.445Z,16.25
2022-10-16T12:46:26.448Z,16.31
2022-10-16T12:49:08.749Z,16.33
2022-10-16T12:51:39.705Z,16.36
2022-10-16T12:54:15.880Z,16.37
2022-10-16T12:56:53.986Z,16.44
2022-10-16T12:59:38.208Z,16.37
2022-10-16T13:02:30.968Z,16.32
2022-10-16T13:05:17.303Z,16.24
2022-10-16T13:08:01.976Z,16.12
2022-10-16T13:10:38.428Z,15.98
2022-10-16T13:13:26.646Z,15.88
2022-10-16T13:16:06.983Z,15.75
2022-10-16T13:18:44.974Z,15.65
2022-10-16T13:21:35.159Z,15.55
2022-10-16T13:24:12.296Z,15.48
2022-10-16T13:26:48.350Z,15.38
2022-10-16T13:29:18.467Z,15.02
2022-10-16T13:31:47.010Z,14.37
2022-10-16T13:34:19.016Z,13.80
2022-10-16T13:36:56.111Z,13.44
2022-10-16T13:39:26.782Z,13.10
2022-10-16T13:42:08.069Z,12.91
2022-10-16T13:44:45.629Z,12.81
2022-10-16T13:47:19.220Z,12.77
2022-10-16T13:49:48.466Z,12.63
2022-10-16T13:52:21.738Z,12.59
2022-10-16T13:54:51.162Z,12.46
2022-10-16T13:57:27.138Z,12.39
2022-10-16T14:03:06.428Z,12.20
2022-10-16T14:05:40.538Z,12.18
2022-10-16T14:08:44.478Z,12.08
2022-10-16T14:11:48.688Z,11.92
2022-10-16T14:14:31.108Z,11.82
2022-10-16T14:17:00.794Z,11.75
2022-10-16T14:19:44.224Z,11.70
2022-10-16T14:22:29.613Z,11.67
2022-10-16T14:25:00.504Z,11.59
2022-10-16T14:27:35.380Z,11.56
2022-10-16T14:30:23.002Z,11.50
2022-10-16T14:33:05.833Z,11.46
2022-10-16T14:35:45.904Z,11.36
2022-10-16T14:38:26.255Z,11.27
2022-10-16T14:41:06.442Z,11.17
2022-10-16T14:43:54.759Z,11.17
2022-10-16T14:46:32.527Z,11.08
2022-10-16T14:49:09.253Z,11.04
2022-10-16T14:51:52.470Z,10.95
2022-10-16T14:54:23.583Z,11.00
2022-10-16T14:57:15.715Z,10.95
2022-10-16T15:00:00.798Z,11.10
2022-10-16T15:02:42.307Z,11.30
2022-10-16T15:05:23.256Z,11.48
2022-10-16T15:07:56.290Z,11.59
2022-10-16T15:10:40.150Z,11.61
2022-10-16T15:13:11.397Z,11.54
2022-10-16T15:15:52.340Z,11.53
2022-10-16T15:18:24.338Z,11.48
2022-10-16T15:20:56.412Z,11.36
2022-10-16T15:23:34.625Z,11.30
2022-10-16T15:26:20.873Z,11.19
2022-10-16T15:29:02.896Z,11.02
2022-10-16T15:31:34.825Z,10.94
2022-10-16T15:34:11.890Z,10.82
2022-10-16T15:37:29.296Z,10.70
2022-10-16T15:39:41.553Z,10.56
2022-10-16T15:42:21.077Z,10.51
2022-10-16T15:44:57.043Z,10.37
2022-10-16T15:47:27.337Z,10.32
2022-10-16T15:49:56.119Z,10.26
2022-10-16T15:53:11.596Z,10.13
2022-10-16T15:55:43.365Z,10.06
2022-10-16T15:58:15.282Z,10.06
2022-10-16T16:00:47.147Z,9.97
2022-10-16T16:03:21.756Z,9.95
2022-10-16T16:05:50.538Z,9.91
2022-10-16T16:08:27.838Z,9.85
2022-10-16T16:11:09.447Z,9.83
2022-10-16T16:14:07.564Z,9.77
2022-10-16T16:16:42.851Z,9.78
2022-10-16T16:19:37.649Z,9.78
2022-10-16T16:22:09.470Z,9.69
2022-10-16T16:25:04.413Z,9.71
2022-10-16T16:27:42.445Z,9.73
2022-10-16T16:30:28.345Z,9.65
2022-10-16T16:33:06.414Z,9.62
2022-10-16T16:35:54.883Z,9.63
2022-10-16T16:38:59.363Z,9.65
2022-10-16T16:41:40.031Z,9.61
2022-10-16T16:44:23.973Z,9.61
2022-10-16T16:47:04.582Z,9.65
2022-10-16T16:51:22.845Z,9.63
2022-10-16T16:52:40.775Z,9.56
2022-10-16T16:58:27.908Z,9.55
2022-10-16T17:01:18.920Z,9.54
2022-10-16T17:03:51.468Z,9.58
2022-10-16T17:06:21.387Z,9.56
2022-10-16T17:09:00.547Z,9.57
2022-10-16T17:11:29.879Z,9.57
2022-10-16T17:14:09.424Z,9.56
2022-10-16T17:16:48.943Z,9.59
2022-10-16T17:19:26.451Z,9.61
2022-10-16T17:21:57.720Z,9.62
2022-10-16T17:24:26.222Z,9.59
2022-10-16T17:27:10.178Z,9.63
2022-10-16T17:29:38.570Z,9.62
2022-10-16T17:32:28.649Z,9.66
2022-10-16T17:35:08.009Z,9.65
2022-10-16T17:38:00.024Z,9.64
2022-10-16T17:40:46.934Z,9.65
2022-10-16T17:44:30.892Z,9.72
2022-10-16T17:46:28.036Z,9.72
2022-10-16T17:48:59.322Z,9.72
2022-10-16T17:51:32.224Z,9.71
2022-10-16T17:54:04.850Z,9.76
2022-10-16T17:56:39.478Z,9.74
2022-10-16T17:59:20.443Z,9.83
2022-10-16T18:01:49.044Z,9.86
2022-10-16T18:04:24.306Z,9.91
2022-10-16T18:06:57.440Z,9.99
2022-10-16T18:09:27.015Z,10.00
2022-10-16T18:12:17.700Z,10.14
2022-10-16T18:14:54.139Z,10.23
2022-10-16T18:17:27.626Z,10.18
2022-10-16T18:19:57.798Z,10.31
2022-10-16T18:22:27.609Z,10.39
2022-10-16T18:24:59.430Z,10.44
2022-10-16T18:27:30.148Z,10.47
2022-10-16T18:30:08.885Z,10.52
2022-10-16T18:32:51.630Z,10.58
2022-10-16T18:35:30.622Z,10.55
2022-10-16T18:38:01.891Z,10.60
2022-10-16T18:40:32.430Z,10.64
2022-10-16T18:43:05.219Z,10.65
2022-10-16T18:45:34.507Z,10.57
2022-10-16T18:48:06.923Z,10.57
2022-10-16T18:50:37.321Z,10.56
2022-10-16T18:53:11.473Z,10.49
2022-10-16T18:56:20.419Z,10.48
2022-10-16T18:59:54.295Z,10.45
2022-10-16T19:02:37.501Z,10.37
2022-10-16T19:05:29.218Z,10.31
2022-10-16T19:10:58.970Z,10.35
2022-10-16T19:13:49.256Z,10.29
2022-10-16T19:16:23.319Z,10.25
2022-10-16T19:18:56.708Z,10.08
2022-10-16T19:22:07.826Z,9.91
2022-10-16T19:25:05.463Z,9.71
2022-10-16T19:27:46.935Z,9.54
2022-10-16T19:30:32.400Z,9.39
2022-10-16T19:33:11.585Z,9.22
2022-10-16T19:42:20.488Z,8.81
2022-10-16T19:45:40.254Z,8.74
2022-10-16T19:48:44.593Z,8.63
2022-10-16T19:55:00.486Z,8.45
2022-10-16T19:57:46.356Z,8.41
2022-10-16T20:01:09.743Z,8.32
2022-10-16T20:04:06.800Z,8.26
2022-10-16T20:09:52.381Z,8.27
2022-10-16T20:12:51.653Z,8.29
2022-10-16T20:16:05.162Z,8.34
2022-10-16T20:18:45.081Z,8.36
2022-10-16T20:21:24.002Z,8.37
2022-10-16T20:24:10.706Z,8.38
2022-10-16T20:27:08.376Z,8.32
2022-10-16T20:31:11.826Z,8.26
2022-10-16T20:33:39.552Z,8.28
2022-10-16T20:36:31.625Z,8.28
2022-10-16T20:39:11.206Z,8.30
2022-10-16T20:42:04.240Z,8.31
2022-10-16T20:45:11.963Z,8.33
2022-10-16T20:47:44.066Z,8.43
2022-10-16T20:53:18.951Z,8.51
2022-10-16T20:56:31.174Z,8.56
2022-10-16T20:58:58.433Z,8.62
2022-10-16T21:01:49.690Z,8.60
2022-10-16T21:05:15.807Z,8.80
2022-10-16T21:08:27.211Z,8.92
2022-10-16T21:11:03.244Z,9.00
2022-10-16T21:13:40.693Z,9.06
2022-10-16T21:16:19.337Z,9.19
2022-10-16T21:19:09.327Z,9.27
2022-10-16T21:21:48.612Z,9.30
2022-10-16T21:24:29.633Z,9.37
2022-10-16T21:27:02.912Z,9.51
2022-10-16T21:29:41.779Z,9.54
2022-10-16T21:32:22.130Z,9.62
2022-10-16T21:35:11.700Z,9.67
2022-10-16T21:37:43.854Z,9.66
2022-10-16T21:40:23.976Z,9.67
2022-10-16T21:43:13.083Z,9.75
2022-10-16T21:45:43.709Z,9.71
2022-10-16T21:48:24.890Z,9.76
2022-10-16T21:50:59.547Z,9.70
2022-10-16T21:53:28.251Z,9.77
2022-10-16T21:56:17.091Z,9.76
2022-10-16T21:58:49.459Z,9.76
2022-10-16T22:01:22.284Z,9.86
2022-10-16T22:03:55.198Z,9.92
2022-10-16T22:06:25.823Z,9.90
2022-10-16T22:08:56.607Z,10.02
2022-10-16T22:11:37.401Z,10.04
2022-10-16T22:14:07.442Z,10.05
2022-10-16T22:16:49.907Z,10.04
2022-10-16T22:19:32.547Z,10.04
2022-10-16T22:22:03.343Z,10.02
2022-10-16T22:43:18.089Z,9.81
2022-10-16T22:46:01.101Z,9.85
2022-10-16T22:48:29.827Z,9.78
2022-10-16T22:50:58.716Z,9.85
2022-10-16T22:53:28.817Z,9.84
2022-10-16T22:56:01.997Z,9.84
2022-10-16T23:14:08.934Z,9.96
2022-10-16T23:17:14.786Z,10.00
2022-10-16T23:20:22.877Z,9.99
2022-10-16T23:23:30.369Z,9.97
2022-10-16T23:26:44.009Z,9.95
2022-10-16T23:29:51.828Z,9.92
2022-10-16T23:33:02.041Z,9.92
2022-10-16T23:36:11.968Z,9.90
2022-10-16T23:39:25.222Z,9.90
2022-10-16T23:42:31.247Z,9.88
2022-10-16T23:45:42.714Z,9.89
2022-10-16T23:48:57.537Z,9.90
2022-10-16T23:52:03.907Z,9.92
2022-10-16T23:55:11.949Z,9.93
2022-10-16T23:58:26.723Z,9.91
